• Join FlightAware (Why Join?)
  • Login
  • US Flag 
03:13PM EST


 

Airport Tracker/Info


-or-


 

Live Flight TrackerFlight Track Log ✈ SWA470 ✈ 30-Apr-2013 ✈ KMDW - KDSM

Flight Track Log - Related Links

Times and Time Zones

All times are in EDT time to prevent confusion due to time zone crossing. See the SWA470 flight status page for this flight to view local times or setup timezone preferences in your user account.

Time Position Orientation Groundspeed Altitude Reporting Facility
EDT Latitude Longitude Course Direction KTS MPH feet Rate Location/Type
02:26PM 41.7667 -87.8167 269° West 167 192 3,000  Level Chicago TRACON
02:27PM 41.7667 -87.8833 270° West 239 275 5,300 2,580 Climbing Chicago TRACON
02:28PM 41.7656 -87.9186 268° West 232 267 6,500 3,840 Climbing Chicago Center
02:29PM 41.7700 -88.0139 274° West 255 293 10,600 2,640 Climbing Chicago Center
02:30PM 41.7750 -88.1156 274° West 274 315 12,000 1,440 Climbing Chicago Center
02:31PM 41.7783 -88.2167 273° West 276 318 13,600 2,100 Climbing Chicago Center
02:32PM 41.7709 -88.5007 269° West  Level Estimated
02:32PM 41.7794 -88.3431 271° West 282 325 16,400  Level Chicago Center
02:33PM 41.7803 -88.4697 271° West 328 377 19,000 2,520 Climbing Chicago Center
02:34PM 41.7767 -88.6061 268° West 360 414 21,700 2,400 Climbing Chicago Center
02:35PM 41.7719 -88.7497 268° West 385 443 24,000 2,400 Climbing Chicago Center
02:36PM 41.7689 -88.8981 268° West 401 461 26,700 2,880 Climbing Chicago Center
02:37PM 41.7628 -89.0836 268° West 416 479 30,000 2,520 Climbing Chicago Center
02:38PM 41.7597 -89.2319 268° West 407 468 32,000 960 Climbing Chicago Center
02:39PM 41.7544 -89.3789 267° West 399 459 32,000  Level Chicago Center
02:40PM 41.7508 -89.5256 268° West 397 457 32,000  Level Chicago Center
02:41PM 41.7447 -89.6806 267° West 399 459 32,000  Level Chicago Center
02:42PM 41.7397 -89.8292 267° West 401 461 32,000  Level Chicago Center
02:43PM 41.7347 -89.9781 267° West 402 463 32,000  Level Chicago Center
02:44PM 41.7281 -90.1564 267° West 401 461 32,000  Level Chicago Center
02:45PM 41.7194 -90.3097 266° West 411 473 32,000  Level Chicago Center
02:46PM 41.7142 -90.4583 267° West 407 468 32,000  Level Chicago Center
02:47PM 41.7083 -90.6033 267° West 397 457 32,000  Level Chicago Center
02:48PM 41.7014 -90.7619 267° West 393 452 32,000  Level Chicago Center
02:49PM 41.6942 -90.9072 266° West 394 453 32,000  Level Chicago Center
02:50PM 41.6875 -91.0519 267° West 393 452 32,000  Level Chicago Center
02:51PM 41.6792 -91.2250 266° West 393 452 32,000  Level Chicago Center
02:52PM 41.6722 -91.3708 266° West 396 456 32,000  Level Chicago Center
02:53PM 41.6642 -91.5158 266° West 395 455 32,000 -180 Level Chicago Center
02:54PM 41.6578 -91.6594 267° West 390 449 31,700 -1,440 Descending Chicago Center
02:55PM 41.6500 -91.8042 266° West 392 451 29,100 -2,520 Descending Chicago Center
02:57PM 41.6419 -91.9569 266° West 410 472 26,600 -2,760 Descending Chicago Center
02:58PM 41.6314 -92.1358 266° West 406 467 23,500 -2,760 Descending Chicago Center
02:59PM 41.6233 -92.2800 266° West 396 456 20,900 -2,520 Descending Chicago Center
03:00PM 41.6153 -92.4158 266° West 378 435 18,300 -2,640 Descending Chicago Center
03:01PM 41.6072 -92.5472 265° West 362 417 15,500 -2,880 Descending Chicago Center
03:02PM 41.5992 -92.6869 266° West 350 403 12,700 -2,340 Descending Minneapolis Center
03:03PM 41.5917 -92.8103 265° West 334 384 11,000 -1,440 Descending Minneapolis Center
03:04PM 41.5847 -92.9264 265° West 294 338 9,800 -1,320 Descending Minneapolis Center
03:05PM 41.5775 -93.0269 265° West 277 319 8,300 -1,500 Descending Minneapolis Center
03:06PM 41.5861 -93.1142 278° West 267 307 6,800 -1,200 Descending Minneapolis Center
03:07PM 41.6183 -93.2028 296° West 263 303 6,000 -780 Descending Minneapolis Center
03:08PM 41.6547 -93.2911 299° West 235 270 5,200 -900 Descending Minneapolis Center
03:09PM 41.6608 -93.3675 276° West 217 250 4,200 -600 Descending Minneapolis Center
03:10PM 41.6456 -93.4431 255° West 197 227 4,000 -420 Descending Minneapolis Center
03:11PM 41.6186 -93.4972 236° Southwest 175 201 3,400 -600 Descending Minneapolis Center
03:12PM 41.6014 -93.5386 241° Southwest 164 189 2,800 -720 Descending Minneapolis Center
03:13PM 41.5767 -93.5828 233° Southwest 156 180 2,000 -840 Descending Minneapolis Center
03:14PM 41.5456 -93.6367 232° Southwest 134 154 1,200 -480 Descending Minneapolis Center
03:15PM 41.5233 -93.6761 233° Southwest 134 154 1,000 -240 Descending Minneapolis Center